Time;durP1;ratioP1;P1;durP2;ratioP2;P2;SDS_P1;SDS_P2;PMS_P1;PMS_P2;Temp;Humidity;BMP_temperature;BMP_pressure;BME280_temperature;BME280_humidity;BME280_pressure;Samples;Min_cycle;Max_cycle;Signal;HPM_P1;HPM_P2
2023/04/27 00:01:00;;;;;;;9.67;9.37;;;5.50;99.90;;;;;;5032689;28;20326;-81
2023/04/27 00:03:28;;;;;;;10.30;10.00;;;5.60;99.90;;;;;;5040733;28;20230;-81
2023/04/27 00:05:55;;;;;;;10.00;9.70;;;5.60;99.90;;;;;;5040688;28;20231;-82
2023/04/27 00:08:23;;;;;;;9.97;9.67;;;5.60;99.90;;;;;;5040334;28;20330;-81
2023/04/27 00:10:51;;;;;;;9.87;9.57;;;5.60;99.90;;;;;;5039020;28;20243;-81
2023/04/27 00:13:19;;;;;;;9.90;9.60;;;5.50;99.90;;;;;;5033688;28;20246;-81
2023/04/27 00:15:47;;;;;;;10.10;9.80;;;5.50;99.90;;;;;;5031141;28;20242;-83
2023/04/27 00:18:14;;;;;;;9.90;9.60;;;5.50;99.90;;;;;;5020206;28;20232;-81
2023/04/27 00:20:43;;;;;;;9.80;9.50;;;5.50;99.90;;;;;;5030168;28;20235;-81
2023/04/27 00:23:11;;;;;;;9.83;9.53;;;5.50;99.90;;;;;;5020524;28;20258;-81
2023/04/27 00:25:38;;;;;;;9.90;9.60;;;5.50;99.90;;;;;;5027385;28;20238;-81
2023/04/27 00:28:06;;;;;;;9.43;9.13;;;5.50;99.90;;;;;;5030875;28;20330;-81
2023/04/27 00:30:35;;;;;;;9.90;9.60;;;5.50;99.90;;;;;;5040305;28;20306;-81
2023/04/27 00:33:03;;;;;;;9.70;9.40;;;5.50;99.90;;;;;;5046419;28;20223;-81
2023/04/27 00:35:32;;;;;;;9.80;9.50;;;5.50;99.90;;;;;;5040845;28;20231;-82
2023/04/27 00:38:00;;;;;;;9.73;9.43;;;5.50;99.90;;;;;;5040486;28;20242;-81
2023/04/27 00:40:27;;;;;;;9.67;9.37;;;5.60;99.90;;;;;;5039727;28;20223;-81
2023/04/27 00:42:55;;;;;;;9.70;9.40;;;5.60;99.90;;;;;;5038896;28;20227;-81
2023/04/27 00:45:23;;;;;;;10.20;9.90;;;5.60;99.90;;;;;;5036081;28;20315;-81
2023/04/27 00:47:52;;;;;;;10.00;9.70;;;5.60;99.90;;;;;;5022120;28;20235;-81
2023/04/27 00:50:26;;;;;;;10.10;9.80;;;5.50;99.90;;;;;;5039471;28;20250;-81
2023/04/27 00:52:54;;;;;;;10.00;9.70;;;5.40;99.90;;;;;;5038043;28;20314;-81
2023/04/27 00:55:22;;;;;;;10.40;10.10;;;5.40;99.90;;;;;;5026054;28;20228;-81
2023/04/27 00:57:49;;;;;;;10.30;10.00;;;5.40;99.90;;;;;;5048096;28;20292;-80
2023/04/27 01:00:17;;;;;;;10.40;10.10;;;5.30;99.90;;;;;;5059580;28;20250;-80
2023/04/27 01:02:44;;;;;;;9.87;9.57;;;5.30;99.90;;;;;;5058662;28;20275;-83
2023/04/27 01:05:14;;;;;;;9.90;9.60;;;5.20;99.90;;;;;;5047675;28;20231;-81
2023/04/27 01:07:41;;;;;;;10.10;9.80;;;5.20;99.90;;;;;;5038637;28;20231;-81
2023/04/27 01:10:10;;;;;;;10.10;9.80;;;5.20;99.90;;;;;;5043645;28;20255;-81
2023/04/27 01:12:37;;;;;;;10.30;10.00;;;5.20;99.90;;;;;;5040379;28;20254;-81
2023/04/27 01:15:07;;;;;;;9.83;9.53;;;5.10;99.90;;;;;;5019418;28;20335;-81
2023/04/27 01:17:35;;;;;;;9.40;9.10;;;5.10;99.90;;;;;;5019146;28;20228;-81
2023/04/27 01:20:06;;;;;;;9.53;9.23;;;5.10;99.90;;;;;;5029532;28;20243;-81
2023/04/27 01:22:35;;;;;;;9.87;9.57;;;5.10;99.90;;;;;;5038822;28;20326;-81
2023/04/27 01:25:05;;;;;;;10.10;9.80;;;5.10;99.90;;;;;;5038286;28;20235;-80
2023/04/27 01:27:32;;;;;;;10.17;9.87;;;5.10;99.90;;;;;;5023136;28;20260;-80
2023/04/27 01:30:00;;;;;;;10.30;10.00;;;5.10;99.90;;;;;;5037939;28;20269;-81
2023/04/27 01:32:27;;;;;;;10.30;10.00;;;5.00;99.90;;;;;;5038388;28;20263;-80
2023/04/27 01:34:55;;;;;;;10.37;10.07;;;5.00;99.90;;;;;;5019859;28;20235;-81
2023/04/27 01:37:23;;;;;;;10.30;10.00;;;4.90;99.90;;;;;;5032337;28;20262;-80
2023/04/27 01:39:50;;;;;;;10.23;9.93;;;4.90;99.90;;;;;;5028636;28;20238;-81
2023/04/27 01:42:19;;;;;;;10.37;10.07;;;4.90;99.90;;;;;;5038772;28;20280;-81
2023/04/27 01:44:47;;;;;;;10.40;10.10;;;4.90;99.90;;;;;;5038517;28;20326;-81
2023/04/27 01:47:16;;;;;;;10.27;9.97;;;5.00;99.90;;;;;;5038609;28;20251;-81
2023/04/27 01:49:44;;;;;;;10.63;10.33;;;5.00;99.90;;;;;;5036877;28;20242;-81
2023/04/27 01:52:11;;;;;;;10.50;10.20;;;5.00;99.90;;;;;;5018094;28;20228;-81
2023/04/27 01:54:39;;;;;;;10.27;9.97;;;5.00;99.90;;;;;;5026765;28;20318;-81
2023/04/27 01:57:06;;;;;;;10.10;9.80;;;5.00;99.90;;;;;;5036594;28;20234;-81
2023/04/27 01:59:35;;;;;;;9.93;9.63;;;5.10;99.90;;;;;;5037741;28;20289;-81
2023/04/27 02:02:03;;;;;;;10.00;9.70;;;5.10;99.90;;;;;;5039037;28;20327;-81
2023/04/27 02:04:30;;;;;;;10.07;9.77;;;5.10;99.90;;;;;;5034423;28;20260;-81
2023/04/27 02:06:58;;;;;;;10.10;9.80;;;5.10;99.90;;;;;;5039248;28;20273;-81
2023/04/27 02:09:25;;;;;;;10.47;10.17;;;5.20;99.90;;;;;;5038072;28;20251;-81
2023/04/27 02:11:53;;;;;;;10.30;10.00;;;5.20;99.90;;;;;;5037382;28;20231;-81
2023/04/27 02:14:20;;;;;;;10.30;10.00;;;5.20;99.90;;;;;;5037604;28;20242;-81
2023/04/27 02:16:49;;;;;;;10.30;10.00;;;5.20;99.90;;;;;;5036058;28;20286;-81
2023/04/27 02:19:16;;;;;;;10.50;10.20;;;5.20;99.90;;;;;;5020735;28;20330;-81
2023/04/27 02:21:44;;;;;;;10.60;10.30;;;5.20;99.90;;;;;;5036382;28;20242;-81
2023/04/27 02:24:11;;;;;;;10.43;10.13;;;5.20;99.90;;;;;;5037133;28;20310;-81
2023/04/27 02:26:39;;;;;;;10.30;10.00;;;5.20;99.90;;;;;;5050839;28;20255;-81
2023/04/27 02:29:06;;;;;;;10.20;9.90;;;5.10;99.90;;;;;;5037659;28;20242;-81
2023/04/27 02:31:34;;;;;;;10.10;9.80;;;5.20;99.90;;;;;;5037143;28;20243;-81
2023/04/27 02:34:03;;;;;;;10.40;10.10;;;5.20;99.90;;;;;;5020560;28;20291;-81
2023/04/27 02:36:30;;;;;;;10.23;9.93;;;5.10;99.90;;;;;;5038098;28;20231;-81
2023/04/27 02:38:58;;;;;;;10.40;10.10;;;5.00;99.90;;;;;;5038311;28;20321;-81
2023/04/27 02:41:27;;;;;;;9.90;9.60;;;5.00;99.90;;;;;;5037177;28;20627;-81
2023/04/27 02:43:54;;;;;;;10.27;9.97;;;5.00;99.90;;;;;;5033869;28;20330;-81
2023/04/27 02:46:22;;;;;;;10.30;10.00;;;4.90;99.90;;;;;;5036728;28;20298;-81
2023/04/27 02:48:49;;;;;;;10.20;9.90;;;4.90;99.90;;;;;;5036236;28;20263;-81
2023/04/27 02:51:18;;;;;;;10.17;9.87;;;4.90;99.90;;;;;;5039841;28;20252;-81
2023/04/27 02:53:46;;;;;;;10.23;9.93;;;4.80;99.90;;;;;;5039778;28;20258;-81
2023/04/27 02:56:13;;;;;;;10.13;9.83;;;4.60;99.90;;;;;;5040310;28;20219;-81
2023/04/27 02:58:40;;;;;;;10.17;9.87;;;4.60;99.90;;;;;;5026959;28;20235;-81
2023/04/27 03:01:08;;;;;;;10.10;9.80;;;4.50;99.90;;;;;;5041611;28;20322;-81
2023/04/27 03:03:36;;;;;;;10.07;9.77;;;4.50;99.90;;;;;;5041266;28;20232;-81
2023/04/27 03:06:03;;;;;;;10.10;9.80;;;4.50;99.90;;;;;;5040334;28;20236;-81
2023/04/27 03:08:32;;;;;;;9.73;9.43;;;4.50;99.90;;;;;;5041530;28;20271;-81
2023/04/27 03:11:00;;;;;;;10.10;9.80;;;4.50;99.90;;;;;;5046831;28;20327;-81
2023/04/27 03:13:27;;;;;;;9.73;9.43;;;4.50;99.90;;;;;;5051771;28;20231;-81
2023/04/27 03:15:55;;;;;;;9.90;9.60;;;4.50;99.90;;;;;;5038282;28;20220;-81
2023/04/27 03:18:22;;;;;;;10.20;9.90;;;4.50;99.90;;;;;;5055684;28;20228;-81
2023/04/27 03:20:50;;;;;;;10.00;9.70;;;4.40;99.90;;;;;;5060130;28;20236;-80
2023/04/27 03:23:17;;;;;;;9.80;9.50;;;4.40;99.90;;;;;;5055355;28;20296;-81
2023/04/27 03:25:47;;;;;;;10.00;9.70;;;4.40;99.90;;;;;;5049779;28;20219;-80
2023/04/27 03:28:15;;;;;;;9.60;9.30;;;4.40;99.90;;;;;;5060450;28;20250;-80
2023/04/27 03:30:42;;;;;;;9.80;9.50;;;4.30;99.90;;;;;;5060213;28;20220;-80
2023/04/27 03:33:10;;;;;;;9.70;9.40;;;4.30;99.90;;;;;;5050036;28;20228;-80
2023/04/27 03:35:37;;;;;;;9.60;9.30;;;4.30;99.90;;;;;;5051455;28;20227;-80
2023/04/27 03:38:05;;;;;;;9.50;9.20;;;4.30;99.90;;;;;;5056736;28;20320;-80
2023/04/27 03:40:32;;;;;;;9.50;9.20;;;4.20;99.90;;;;;;5055444;28;20247;-80
2023/04/27 03:43:01;;;;;;;10.00;9.70;;;4.10;99.90;;;;;;5052389;28;20231;-80
2023/04/27 03:45:29;;;;;;;10.10;9.80;;;4.00;99.90;;;;;;5060593;28;20236;-80
2023/04/27 03:47:56;;;;;;;10.20;9.90;;;4.00;99.90;;;;;;5055935;28;20246;-80
2023/04/27 03:50:24;;;;;;;10.77;10.47;;;4.00;99.90;;;;;;5051588;28;20287;-81
2023/04/27 03:52:51;;;;;;;10.57;10.27;;;4.00;99.90;;;;;;5052012;28;20277;-80
2023/04/27 03:55:19;;;;;;;10.57;10.27;;;4.00;99.90;;;;;;5060490;28;20227;-79
2023/04/27 03:57:47;;;;;;;10.57;10.27;;;4.00;99.90;;;;;;5043661;28;20224;-80
2023/04/27 04:00:17;;;;;;;10.53;10.23;;;4.10;99.90;;;;;;5059783;28;20227;-80
2023/04/27 04:02:45;;;;;;;10.47;10.17;;;4.10;99.90;;;;;;5043166;28;20226;-80
2023/04/27 04:05:13;;;;;;;10.80;10.50;;;4.10;99.90;;;;;;5040525;28;20209;-80
2023/04/27 04:07:42;;;;;;;10.77;10.47;;;4.10;99.90;;;;;;5056437;28;20230;-80
2023/04/27 04:10:11;;;;;;;11.00;10.70;;;4.10;99.90;;;;;;5051715;28;20230;-81
2023/04/27 04:12:38;;;;;;;11.30;11.00;;;4.00;99.90;;;;;;5050555;28;20211;-80
2023/04/27 04:15:08;;;;;;;11.20;10.90;;;4.00;99.90;;;;;;5051844;28;20299;-80
2023/04/27 04:17:37;;;;;;;11.00;10.70;;;4.00;99.90;;;;;;5060010;28;20223;-81
2023/04/27 04:20:08;;;;;;;11.23;10.93;;;4.00;99.90;;;;;;5057680;28;20251;-81
2023/04/27 04:22:36;;;;;;;11.03;10.73;;;4.00;99.90;;;;;;5057650;28;20215;-81
2023/04/27 04:25:04;;;;;;;11.03;10.73;;;3.90;99.90;;;;;;5059706;28;20215;-81
2023/04/27 04:27:32;;;;;;;10.87;10.57;;;3.90;99.90;;;;;;5058902;28;20231;-81
2023/04/27 04:30:00;;;;;;;10.83;10.53;;;4.00;99.90;;;;;;5059073;28;20223;-81
2023/04/27 04:32:28;;;;;;;10.63;10.33;;;4.00;99.90;;;;;;5058376;28;20219;-81
2023/04/27 04:34:57;;;;;;;10.67;10.37;;;4.00;99.90;;;;;;5056159;28;20239;-81
2023/04/27 04:37:25;;;;;;;10.63;10.33;;;4.00;99.90;;;;;;5050171;28;20227;-81
2023/04/27 04:39:52;;;;;;;10.93;10.63;;;4.00;99.90;;;;;;5049191;28;20334;-81
2023/04/27 04:42:20;;;;;;;10.80;10.50;;;4.10;99.90;;;;;;5053472;28;20231;-81
2023/04/27 04:44:48;;;;;;;11.00;10.70;;;4.10;99.90;;;;;;5050947;28;20235;-81
2023/04/27 04:47:16;;;;;;;10.80;10.50;;;4.10;99.90;;;;;;5054670;28;20238;-81
2023/04/27 04:49:44;;;;;;;10.53;10.23;;;4.20;99.90;;;;;;5052582;28;20219;-81
2023/04/27 04:52:13;;;;;;;10.80;10.50;;;4.10;99.90;;;;;;5052585;28;20241;-80
2023/04/27 04:54:40;;;;;;;11.00;10.70;;;4.00;99.90;;;;;;5047016;28;20248;-80
2023/04/27 04:57:07;;;;;;;11.23;10.93;;;4.10;99.90;;;;;;5045874;28;20222;-81
2023/04/27 04:59:35;;;;;;;10.70;10.40;;;4.10;99.90;;;;;;5045087;28;20293;-81
2023/04/27 05:02:02;;;;;;;10.80;10.50;;;4.10;99.90;;;;;;5045619;28;20318;-82
2023/04/27 05:04:30;;;;;;;10.97;10.67;;;4.10;99.90;;;;;;5044861;28;20296;-80
2023/04/27 05:06:58;;;;;;;11.00;10.70;;;4.20;99.90;;;;;;5044863;28;20227;-80
2023/04/27 05:09:27;;;;;;;11.50;11.10;;;4.20;99.90;;;;;;5045240;28;20225;-80
2023/04/27 05:11:55;;;;;;;10.93;10.63;;;4.20;99.90;;;;;;5044646;28;20223;-80
2023/04/27 05:14:22;;;;;;;11.00;10.70;;;4.20;99.90;;;;;;5045871;28;20287;-81
2023/04/27 05:16:50;;;;;;;10.97;10.67;;;4.30;99.90;;;;;;5044147;28;20223;-80
2023/04/27 05:19:19;;;;;;;11.13;10.83;;;4.30;99.90;;;;;;5042247;28;20228;-80
2023/04/27 05:21:47;;;;;;;11.07;10.77;;;4.40;99.90;;;;;;5043780;28;20289;-80
2023/04/27 05:24:14;;;;;;;11.10;10.80;;;4.50;99.90;;;;;;5044139;28;20251;-80
2023/04/27 05:26:44;;;;;;;10.93;10.63;;;4.50;99.90;;;;;;5042642;28;20243;-80
2023/04/27 05:29:12;;;;;;;11.00;10.70;;;4.60;99.90;;;;;;5041951;28;20228;-80
2023/04/27 05:31:39;;;;;;;10.57;10.27;;;4.70;99.90;;;;;;5041783;28;20237;-81
2023/04/27 05:34:08;;;;;;;11.30;11.00;;;4.80;99.90;;;;;;5048051;28;21110;-82
2023/04/27 05:36:36;;;;;;;11.00;10.70;;;4.90;99.90;;;;;;5053172;28;20238;-81
2023/04/27 05:39:03;;;;;;;10.57;10.27;;;5.10;99.90;;;;;;5051218;28;20299;-81
2023/04/27 05:41:31;;;;;;;10.50;10.20;;;5.20;99.90;;;;;;5050181;28;20294;-81
2023/04/27 05:44:00;;;;;;;10.67;10.37;;;5.20;99.90;;;;;;5049461;28;20231;-81
2023/04/27 05:46:28;;;;;;;10.70;10.40;;;5.40;99.90;;;;;;5053099;28;20250;-81
2023/04/27 05:48:55;;;;;;;10.60;10.30;;;5.40;99.90;;;;;;5048603;28;20258;-81
2023/04/27 05:51:23;;;;;;;10.37;10.07;;;5.40;99.90;;;;;;5038423;28;20248;-81
2023/04/27 05:53:53;;;;;;;10.30;10.00;;;5.50;99.90;;;;;;5045953;28;20227;-81
2023/04/27 05:56:20;;;;;;;10.17;9.87;;;5.60;99.90;;;;;;5048163;28;20231;-81
2023/04/27 05:58:48;;;;;;;10.07;9.77;;;5.60;99.90;;;;;;5039224;28;20252;-81
2023/04/27 06:01:17;;;;;;;10.30;10.00;;;5.70;99.90;;;;;;5045622;28;20241;-81
2023/04/27 06:03:44;;;;;;;10.00;9.70;;;5.80;99.90;;;;;;5047930;28;20283;-82
2023/04/27 06:06:12;;;;;;;9.77;9.47;;;5.80;99.90;;;;;;5040999;28;20240;-81
2023/04/27 06:08:39;;;;;;;9.60;9.30;;;5.90;99.90;;;;;;5041651;28;20239;-81
2023/04/27 06:11:07;;;;;;;9.67;9.37;;;6.00;99.90;;;;;;5045526;28;20279;-81
2023/04/27 06:13:34;;;;;;;9.70;9.40;;;6.20;99.90;;;;;;5038441;28;20243;-81
2023/04/27 06:16:02;;;;;;;10.07;9.77;;;6.30;99.90;;;;;;5037724;28;20258;-81
2023/04/27 06:18:31;;;;;;;10.07;9.77;;;6.30;99.90;;;;;;5048844;28;20219;-82
2023/04/27 06:21:02;;;;;;;10.10;9.80;;;6.40;99.90;;;;;;5046632;28;20324;-80
2023/04/27 06:23:29;;;;;;;10.00;9.70;;;6.50;99.90;;;;;;5043269;28;20303;-81
2023/04/27 06:25:57;;;;;;;9.90;9.60;;;6.60;99.90;;;;;;5051126;28;20235;-81
2023/04/27 06:28:25;;;;;;;10.10;9.80;;;6.70;99.90;;;;;;5052612;28;20245;-81
2023/04/27 06:30:54;;;;;;;10.03;9.73;;;6.80;99.90;;;;;;5050532;28;20235;-81
2023/04/27 06:33:21;;;;;;;9.93;9.63;;;6.90;99.90;;;;;;5048108;28;20330;-81
2023/04/27 06:35:52;;;;;;;10.00;9.70;;;7.00;99.90;;;;;;5046774;28;20273;-82
2023/04/27 06:38:19;;;;;;;10.00;9.70;;;7.10;99.90;;;;;;5048115;28;20228;-80
2023/04/27 06:40:52;;;;;;;10.30;10.00;;;7.10;99.90;;;;;;5051230;28;20325;-84
2023/04/27 06:43:19;;;;;;;9.90;9.60;;;7.10;99.90;;;;;;5037136;28;20300;-83
2023/04/27 06:45:47;;;;;;;9.90;9.60;;;7.30;99.90;;;;;;5027487;28;20228;-82
2023/04/27 06:48:17;;;;;;;9.90;9.60;;;7.50;99.90;;;;;;5022167;28;20228;-82
2023/04/27 06:50:45;;;;;;;9.63;9.33;;;7.60;99.90;;;;;;5026860;28;20244;-82
2023/04/27 06:53:16;;;;;;;9.67;9.37;;;7.70;99.90;;;;;;5027863;28;20251;-81
2023/04/27 06:55:43;;;;;;;9.93;9.63;;;7.80;99.90;;;;;;5025031;28;20232;-81
2023/04/27 06:58:11;;;;;;;10.03;9.73;;;7.90;99.90;;;;;;5026464;28;20230;-81
2023/04/27 07:00:39;;;;;;;9.97;9.67;;;8.10;99.90;;;;;;5030411;28;20266;-82
2023/04/27 07:03:06;;;;;;;10.13;9.83;;;8.20;99.90;;;;;;5030862;28;20235;-82
2023/04/27 07:05:34;;;;;;;10.00;9.70;;;8.30;99.90;;;;;;5047300;28;20242;-82
2023/04/27 07:08:02;;;;;;;10.13;9.83;;;8.30;99.90;;;;;;5046102;28;20226;-81
2023/04/27 07:10:31;;;;;;;10.23;9.93;;;8.40;99.90;;;;;;5045649;28;20235;-81
2023/04/27 07:12:59;;;;;;;9.93;9.63;;;8.40;99.90;;;;;;5046665;28;20273;-81
2023/04/27 07:15:27;;;;;;;10.03;9.73;;;8.50;99.90;;;;;;5046905;28;20266;-81
2023/04/27 07:17:54;;;;;;;9.93;9.63;;;8.50;99.90;;;;;;5046818;28;20238;-81
2023/04/27 07:20:22;;;;;;;10.00;9.70;;;8.60;99.90;;;;;;5046976;28;20303;-80
2023/04/27 07:22:49;;;;;;;10.00;9.70;;;8.70;99.90;;;;;;5047385;28;20232;-81
2023/04/27 07:25:17;;;;;;;10.03;9.73;;;8.90;99.90;;;;;;5047552;28;20220;-80
2023/04/27 07:27:46;;;;;;;9.87;9.57;;;9.00;99.90;;;;;;5047134;28;20238;-81
2023/04/27 07:30:16;;;;;;;10.10;9.80;;;9.30;99.90;;;;;;5045898;28;20258;-81
2023/04/27 07:32:44;;;;;;;10.00;9.70;;;9.40;99.90;;;;;;5045516;28;20230;-80
2023/04/27 07:35:12;;;;;;;10.30;10.00;;;9.40;99.90;;;;;;5047324;28;20230;-80
2023/04/27 07:37:40;;;;;;;10.10;9.80;;;9.60;99.90;;;;;;5048345;28;20227;-83
2023/04/27 07:40:15;;;;;;;10.07;9.77;;;9.80;99.90;;;;;;5047467;28;21340;-81
2023/04/27 07:42:42;;;;;;;10.00;9.70;;;10.00;99.90;;;;;;5046385;28;20266;-84
2023/04/27 07:45:12;;;;;;;10.07;9.77;;;10.20;99.90;;;;;;5046975;28;20327;-81
2023/04/27 07:47:41;;;;;;;10.13;9.83;;;10.40;99.90;;;;;;5049185;28;20224;-83
2023/04/27 07:50:11;;;;;;;10.10;9.80;;;10.60;99.90;;;;;;5049262;28;20239;-80
2023/04/27 07:52:39;;;;;;;10.03;9.73;;;10.80;99.90;;;;;;5048128;28;20227;-83
2023/04/27 07:55:08;;;;;;;10.00;9.70;;;11.00;99.90;;;;;;5048107;28;20255;-82
2023/04/27 07:57:36;;;;;;;10.03;9.73;;;11.10;99.90;;;;;;5047866;28;20243;-80
2023/04/27 08:00:07;;;;;;;10.27;9.97;;;11.20;99.90;;;;;;5046219;28;20271;-79
2023/04/27 08:02:36;;;;;;;10.00;9.70;;;11.20;99.90;;;;;;5050118;28;20229;-80
2023/04/27 08:05:04;;;;;;;10.10;9.80;;;11.30;99.90;;;;;;5045324;28;20258;-81
2023/04/27 08:07:33;;;;;;;10.03;9.73;;;11.30;99.90;;;;;;5047800;28;20231;-81
2023/04/27 08:10:01;;;;;;;10.10;9.80;;;11.40;99.90;;;;;;5046029;28;20299;-81
2023/04/27 08:12:28;;;;;;;10.10;9.80;;;11.60;99.90;;;;;;5046510;28;20245;-80
2023/04/27 08:14:56;;;;;;;10.20;9.90;;;11.50;99.90;;;;;;5045341;28;20262;-80
2023/04/27 08:17:24;;;;;;;10.40;10.10;;;11.60;99.90;;;;;;5046645;28;20322;-81
2023/04/27 08:19:53;;;;;;;10.10;9.80;;;11.60;99.90;;;;;;5046223;28;20267;-80
2023/04/27 08:22:22;;;;;;;9.70;9.40;;;11.70;99.90;;;;;;5091445;22;20294;-86
2023/04/27 08:25:58;;;;;;;9.60;9.30;;;11.70;99.90;;;;;;5044938;28;20224;-87
2023/04/27 08:35:43;;;;;;;10.07;9.77;;;12.10;99.90;;;;;;4946770;28;20228;-87
2023/04/27 08:38:23;;;;;;;9.90;9.60;;;12.20;99.90;;;;;;5022251;28;20248;-90
2023/04/27 08:40:51;;;;;;;9.83;9.53;;;12.30;99.90;;;;;;5021341;28;20672;-90
2023/04/27 08:43:22;;;;;;;10.03;9.73;;;12.60;99.90;;;;;;5021969;28;20228;-88
2023/04/27 08:45:51;;;;;;;9.80;9.50;;;12.80;99.90;;;;;;5021827;28;20241;-90
2023/04/27 08:48:29;;;;;;;10.37;10.07;;;13.00;99.90;;;;;;5021109;28;20295;-89
2023/04/27 08:51:15;;;;;;;10.20;9.90;;;13.10;99.90;;;;;;5021534;28;20236;-90
2023/04/27 08:53:54;;;;;;;10.23;9.93;;;13.20;99.90;;;;;;5021850;28;20286;-88
2023/04/27 08:56:23;;;;;;;10.47;10.17;;;13.30;99.90;;;;;;5022108;28;20268;-89
2023/04/27 08:58:53;;;;;;;10.60;10.30;;;13.30;99.90;;;;;;5022123;28;20283;-88
2023/04/27 09:01:22;;;;;;;10.53;10.23;;;13.50;99.90;;;;;;5024183;28;20220;-89
2023/04/27 09:04:02;;;;;;;10.90;10.60;;;13.90;99.90;;;;;;5038486;28;20208;-90
2023/04/27 09:06:39;;;;;;;10.57;10.27;;;14.40;99.90;;;;;;5038970;28;20274;-90
2023/04/27 09:09:08;;;;;;;10.60;10.30;;;14.60;99.90;;;;;;5049383;28;20279;-91
2023/04/27 09:11:37;;;;;;;10.70;10.40;;;14.70;99.90;;;;;;5056374;28;20235;-90
2023/04/27 09:14:20;;;;;;;10.40;10.10;;;14.90;99.90;;;;;;5043423;28;20258;-89
2023/04/27 09:16:58;;;;;;;10.63;10.33;;;15.20;99.90;;;;;;5042978;28;20235;-89
2023/04/27 09:19:32;;;;;;;10.55;10.25;;;15.40;99.90;;;;;;5041796;28;20227;-90
2023/04/27 09:22:28;;;;;;;10.38;10.07;;;15.60;99.90;;;;;;5040785;28;20780;-89
2023/04/27 09:24:58;;;;;;;10.43;10.13;;;16.00;99.90;;;;;;5041630;28;20231;-89
2023/04/27 09:27:28;;;;;;;10.65;10.35;;;16.20;99.90;;;;;;5040986;28;20238;-91
2023/04/27 09:29:56;;;;;;;10.65;10.35;;;16.10;99.90;;;;;;5041126;28;20286;-89
2023/04/27 09:32:25;;;;;;;10.57;10.27;;;16.00;99.90;;;;;;5040808;28;20326;-88
2023/04/27 09:34:55;;;;;;;10.15;9.85;;;15.80;99.90;;;;;;5041480;28;20248;-89
2023/04/27 09:37:59;;;;;;;10.07;9.77;;;15.50;99.90;;;;;;5040475;28;20231;-89
2023/04/27 09:40:32;;;;;;;10.55;10.25;;;15.60;99.90;;;;;;5058343;28;20241;-92
2023/04/27 09:43:01;;;;;;;10.35;10.05;;;15.80;99.90;;;;;;5050525;28;20239;-89
2023/04/27 09:45:29;;;;;;;10.90;10.60;;;16.10;99.90;;;;;;5040685;28;20293;-88
2023/04/27 09:47:58;;;;;;;10.93;10.63;;;16.40;99.90;;;;;;5040173;28;20236;-89
2023/04/27 09:50:27;;;;;;;10.85;10.55;;;16.60;99.90;;;;;;5040335;28;20259;-89
2023/04/27 09:53:07;;;;;;;11.15;10.85;;;16.50;99.90;;;;;;5040323;28;20227;-90
2023/04/27 09:55:44;;;;;;;10.80;10.50;;;16.50;99.90;;;;;;5040682;28;20299;-90
2023/04/27 09:59:06;;;;;;;10.68;10.38;;;16.50;99.90;;;;;;5049618;28;20230;-88
2023/04/27 10:01:52;;;;;;;10.77;10.48;;;16.50;99.90;;;;;;5056269;22;20215;-89
2023/04/27 10:04:52;;;;;;;10.63;10.32;;;16.70;99.90;;;;;;5079930;28;20234;-89
2023/04/27 10:10:24;;;;;;;10.27;9.98;;;16.90;99.90;;;;;;5062839;28;20223;-91
2023/04/27 10:13:01;;;;;;;10.20;9.90;;;17.10;99.90;;;;;;5050616;28;20207;-91
2023/04/27 10:15:30;;;;;;;10.10;9.80;;;17.20;99.90;;;;;;5061981;28;20211;-88
2023/04/27 10:18:10;;;;;;;10.05;9.75;;;16.70;99.90;;;;;;5055050;28;20223;-88
2023/04/27 10:20:39;;;;;;;10.23;9.93;;;17.00;99.90;;;;;;5061690;28;20287;-89
2023/04/27 10:23:08;;;;;;;10.23;9.93;;;17.30;99.90;;;;;;5053624;28;20235;-88
2023/04/27 10:25:46;;;;;;;10.68;10.38;;;17.20;99.90;;;;;;5047200;28;20216;-89
2023/04/27 10:28:17;;;;;;;9.95;9.65;;;17.30;99.90;;;;;;5044245;28;20764;-88
2023/04/27 10:30:47;;;;;;;10.02;9.73;;;17.60;99.90;;;;;;5043295;28;20243;-88
2023/04/27 10:33:40;;;;;;;10.30;10.00;;;17.40;99.90;;;;;;5025811;28;20235;-88
2023/04/27 10:36:19;;;;;;;10.48;10.18;;;17.70;99.90;;;;;;5042458;28;20215;-88
2023/04/27 10:38:56;;;;;;;10.30;10.00;;;18.10;99.90;;;;;;5042839;28;20243;-88
2023/04/27 10:41:35;;;;;;;10.32;10.02;;;18.40;99.90;;;;;;5042829;28;20301;-89
2023/04/27 10:44:31;;;;;;;10.73;10.43;;;18.60;99.90;;;;;;5042650;28;20237;-90
2023/04/27 10:47:01;;;;;;;10.50;10.20;;;18.40;99.90;;;;;;5042881;28;20228;-88
2023/04/27 10:49:29;;;;;;;10.73;10.43;;;18.30;99.90;;;;;;5042266;28;20227;-88
2023/04/27 10:52:03;;;;;;;10.80;10.50;;;18.10;99.90;;;;;;5045131;28;20359;-89
2023/04/27 10:54:38;;;;;;;11.13;10.82;;;18.00;99.90;;;;;;5048177;28;20220;-88
2023/04/27 10:57:15;;;;;;;10.80;10.50;;;18.10;99.90;;;;;;5052727;28;20265;-88
2023/04/27 10:59:57;;;;;;;11.02;10.73;;;18.10;99.90;;;;;;5047836;28;20231;-89
2023/04/27 11:02:35;;;;;;;10.88;10.57;;;18.50;99.90;;;;;;5049098;28;20247;-85
2023/04/27 11:05:21;;;;;;;10.43;10.13;;;18.50;99.90;;;;;;5044562;28;20257;-87
2023/04/27 11:07:59;;;;;;;11.00;10.70;;;18.60;99.90;;;;;;5042489;28;20246;-87
2023/04/27 11:10:30;;;;;;;11.10;10.80;;;18.50;99.90;;;;;;5041877;28;20254;-87
2023/04/27 11:13:07;;;;;;;10.63;10.32;;;18.30;99.90;;;;;;5043684;28;20235;-87
2023/04/27 11:15:45;;;;;;;10.50;10.20;;;18.00;99.90;;;;;;5041863;28;20237;-86
2023/04/27 11:18:15;;;;;;;10.20;9.90;;;17.60;99.90;;;;;;5042754;28;20237;-87
2023/04/27 11:20:44;;;;;;;10.35;10.05;;;17.50;99.90;;;;;;5042494;28;20290;-86
2023/04/27 11:26:00;;;;;;;10.30;10.00;;;17.60;99.90;;;;;;5040883;28;20233;-87
2023/04/27 11:28:39;;;;;;;10.10;9.80;;;17.80;99.90;;;;;;5042140;28;20281;-86
2023/04/27 11:31:08;;;;;;;10.30;10.00;;;17.60;99.90;;;;;;5024620;28;20239;-86
2023/04/27 11:33:38;;;;;;;10.13;9.82;;;17.80;99.90;;;;;;5043524;28;20238;-86
2023/04/27 11:36:17;;;;;;;10.18;9.88;;;18.10;99.90;;;;;;5043790;28;20246;-86
2023/04/27 11:38:47;;;;;;;9.93;9.63;;;18.30;99.90;;;;;;5044521;28;20231;-87
2023/04/27 11:41:15;;;;;;;9.93;9.63;;;18.40;99.90;;;;;;5047883;28;20286;-87
2023/04/27 11:43:53;;;;;;;10.10;9.80;;;18.40;99.90;;;;;;5053893;28;20242;-87
2023/04/27 11:46:22;;;;;;;10.10;9.80;;;17.90;99.90;;;;;;5046396;28;20231;-88
2023/04/27 11:48:51;;;;;;;9.88;9.57;;;17.90;99.90;;;;;;5044450;28;20238;-90
2023/04/27 11:51:22;;;;;;;9.90;9.60;;;18.00;99.90;;;;;;5042792;28;20238;-91
2023/04/27 11:53:51;;;;;;;10.32;10.02;;;17.90;99.90;;;;;;5042944;28;20301;-89
2023/04/27 11:56:19;;;;;;;10.60;10.30;;;17.90;99.90;;;;;;5042210;28;20372;-90
2023/04/27 11:58:58;;;;;;;10.88;10.57;;;18.00;99.90;;;;;;5042318;28;20286;-88
2023/04/27 12:01:27;;;;;;;10.63;10.32;;;18.30;99.90;;;;;;5042633;28;20243;-87
2023/04/27 12:03:57;;;;;;;10.23;9.93;;;18.70;99.90;;;;;;5041699;28;20250;-89
2023/04/27 12:06:27;;;;;;;10.70;10.40;;;18.80;99.90;;;;;;5043318;28;20224;-89
2023/04/27 12:08:57;;;;;;;10.70;10.40;;;18.70;99.90;;;;;;5042474;28;20231;-88
2023/04/27 12:11:26;;;;;;;10.80;10.50;;;18.60;99.90;;;;;;5042078;28;20266;-88
2023/04/27 12:14:07;;;;;;;10.60;10.30;;;18.50;99.90;;;;;;5042790;28;20235;-89
2023/04/27 12:16:35;;;;;;;10.70;10.40;;;18.40;99.90;;;;;;5042439;28;20335;-89
2023/04/27 12:19:05;;;;;;;10.63;10.32;;;18.60;99.90;;;;;;5041987;28;20224;-89
2023/04/27 12:21:33;;;;;;;11.15;10.85;;;18.90;99.90;;;;;;5041503;28;20238;-88
2023/04/27 12:24:01;;;;;;;11.15;10.85;;;19.10;99.90;;;;;;5042165;28;20232;-89
2023/04/27 12:26:41;;;;;;;11.10;10.80;;;19.50;99.90;;;;;;5055293;28;20216;-90
2023/04/27 12:32:43;;;;;;;10.98;10.68;;;19.70;99.90;;;;;;5123019;27;1655577;-88
2023/04/27 12:35:12;;;;;;;11.00;10.70;;;19.90;99.90;;;;;;5159979;27;20333;-89
2023/04/27 12:37:40;;;;;;;10.98;10.68;;;19.90;99.90;;;;;;5159658;27;20258;-89
2023/04/27 12:40:11;;;;;;;10.43;10.13;;;19.70;99.90;;;;;;5159371;27;20229;-89
2023/04/27 12:42:39;;;;;;;10.50;10.20;;;19.80;99.90;;;;;;5159670;27;20235;-88
2023/04/27 12:45:09;;;;;;;10.50;10.20;;;19.90;99.90;;;;;;5159779;27;20234;-89
2023/04/27 12:47:49;;;;;;;10.40;10.10;;;19.70;99.90;;;;;;5160328;27;20231;-89
2023/04/27 12:50:24;;;;;;;10.45;10.15;;;19.40;99.90;;;;;;5161000;27;20215;-88
2023/04/27 12:52:54;;;;;;;10.60;10.30;;;19.60;99.90;;;;;;5160213;27;20249;-90
2023/04/27 12:55:26;;;;;;;10.60;10.30;;;19.50;99.90;;;;;;5160775;27;20327;-89
2023/04/27 12:57:56;;;;;;;10.35;10.05;;;19.20;99.90;;;;;;5160622;27;20231;-89
2023/04/27 13:00:25;;;;;;;10.70;10.40;;;18.80;99.90;;;;;;5161282;27;20239;-89
2023/04/27 13:05:43;;;;;;;10.80;10.50;;;19.10;99.90;;;;;;5158172;27;20232;-89
2023/04/27 13:08:11;;;;;;;10.60;10.30;;;19.30;99.90;;;;;;5148112;27;20224;-89
2023/04/27 13:10:41;;;;;;;10.85;10.55;;;19.50;99.90;;;;;;5154442;27;20254;-91
2023/04/27 13:13:11;;;;;;;10.95;10.65;;;19.40;99.90;;;;;;5157669;27;20229;-89
2023/04/27 13:15:46;;;;;;;10.63;10.32;;;19.30;99.90;;;;;;5157082;27;20227;-91